createdAt,value
2022-09-14T00:01:27.106Z,21.80
2022-09-14T00:04:03.994Z,21.90
2022-09-14T00:06:31.407Z,21.90
2022-09-14T00:09:00.779Z,21.90
2022-09-14T00:11:30.595Z,21.90
2022-09-14T00:13:59.109Z,21.90
2022-09-14T00:16:35.256Z,21.90
2022-09-14T00:19:06.162Z,21.80
2022-09-14T00:21:37.716Z,21.90
2022-09-14T00:24:07.320Z,21.90
2022-09-14T00:26:34.401Z,21.80
2022-09-14T00:29:05.363Z,21.80
2022-09-14T00:31:34.912Z,21.80
2022-09-14T00:34:03.171Z,21.80
2022-09-14T00:36:31.499Z,21.80
2022-09-14T00:39:00.668Z,21.80
2022-09-14T00:41:31.986Z,21.70
2022-09-14T00:44:01.616Z,21.70
2022-09-14T00:46:43.982Z,21.70
2022-09-14T00:49:16.676Z,21.70
2022-09-14T00:52:09.541Z,21.70
2022-09-14T00:54:49.076Z,21.70
2022-09-14T00:57:17.437Z,21.60
2022-09-14T00:59:46.326Z,21.60
2022-09-14T01:02:15.044Z,21.60
2022-09-14T01:04:43.424Z,21.50
2022-09-14T01:07:22.340Z,21.50
2022-09-14T01:10:13.988Z,21.50
2022-09-14T01:12:59.731Z,21.50
2022-09-14T01:15:29.722Z,21.40
2022-09-14T01:18:33.119Z,21.40
2022-09-14T01:21:24.575Z,21.50
2022-09-14T01:24:16.371Z,21.40
2022-09-14T01:26:46.483Z,21.50
2022-09-14T01:29:49.603Z,21.30
2022-09-14T01:32:27.337Z,21.40
2022-09-14T01:35:07.788Z,21.30
2022-09-14T01:37:43.117Z,21.30
2022-09-14T01:40:36.724Z,21.30
2022-09-14T01:43:29.817Z,21.30
2022-09-14T01:46:01.032Z,21.30
2022-09-14T01:48:35.964Z,21.30
2022-09-14T01:51:12.607Z,21.30
2022-09-14T01:54:05.337Z,21.30
2022-09-14T01:56:43.984Z,21.20
2022-09-14T01:59:31.195Z,21.30
2022-09-14T02:02:12.701Z,21.30
2022-09-14T02:05:03.352Z,21.30
2022-09-14T02:07:30.521Z,21.30
2022-09-14T02:09:57.431Z,21.20
2022-09-14T02:12:24.575Z,21.20
2022-09-14T02:14:53.976Z,21.20
2022-09-14T02:17:21.991Z,21.20
2022-09-14T02:19:53.639Z,21.20
2022-09-14T02:22:20.591Z,21.20
2022-09-14T02:24:48.343Z,21.20
2022-09-14T02:27:15.542Z,21.20
2022-09-14T02:29:42.680Z,21.20
2022-09-14T02:32:26.568Z,21.20
2022-09-14T02:34:53.400Z,21.20
2022-09-14T02:37:26.127Z,21.10
2022-09-14T02:40:13.656Z,21.10
2022-09-14T02:42:52.866Z,21.10
2022-09-14T02:45:41.362Z,21.00
2022-09-14T02:48:37.578Z,21.00
2022-09-14T02:51:20.335Z,21.00
2022-09-14T02:53:59.721Z,21.00
2022-09-14T02:56:28.549Z,21.00
2022-09-14T02:58:56.014Z,21.00
2022-09-14T03:01:24.415Z,21.00
2022-09-14T03:03:51.380Z,21.00
2022-09-14T03:06:18.446Z,21.00
2022-09-14T03:08:45.388Z,21.00
2022-09-14T03:11:12.932Z,21.00
2022-09-14T03:13:40.022Z,21.00
2022-09-14T03:16:12.624Z,21.00
2022-09-14T03:18:40.013Z,21.00
2022-09-14T03:21:10.469Z,20.90
2022-09-14T03:23:39.417Z,20.90
2022-09-14T03:26:12.153Z,20.90
2022-09-14T03:28:39.687Z,20.90
2022-09-14T03:31:09.803Z,20.90
2022-09-14T03:33:37.215Z,20.90
2022-09-14T03:36:15.846Z,20.90
2022-09-14T03:38:44.428Z,20.90
2022-09-14T03:41:12.110Z,20.80
2022-09-14T03:43:39.385Z,20.80
2022-09-14T03:46:12.272Z,20.80
2022-09-14T03:48:39.434Z,20.80
2022-09-14T03:51:07.803Z,20.70
2022-09-14T03:53:35.160Z,20.70
2022-09-14T03:56:06.139Z,20.70
2022-09-14T03:58:33.199Z,20.70
2022-09-14T04:01:07.251Z,20.70
2022-09-14T04:03:34.309Z,20.70
2022-09-14T04:06:05.314Z,20.70
2022-09-14T04:08:34.651Z,20.70
2022-09-14T04:11:07.891Z,20.60
2022-09-14T04:13:35.203Z,20.60
2022-09-14T04:16:02.361Z,20.60
2022-09-14T04:18:29.308Z,20.60
2022-09-14T04:21:08.414Z,20.60
2022-09-14T04:23:56.624Z,20.60
2022-09-14T04:26:26.301Z,20.60
2022-09-14T04:28:53.960Z,20.60
2022-09-14T04:31:21.083Z,20.60
2022-09-14T04:33:50.597Z,20.50
2022-09-14T04:36:20.819Z,20.50
2022-09-14T04:38:48.096Z,20.60
2022-09-14T04:41:17.960Z,20.60
2022-09-14T04:43:46.327Z,20.60
2022-09-14T04:46:16.048Z,20.60
2022-09-14T04:48:43.415Z,20.60
2022-09-14T04:51:19.076Z,20.60
2022-09-14T04:53:48.038Z,20.60
2022-09-14T04:56:15.166Z,20.60
2022-09-14T04:58:51.261Z,20.60
2022-09-14T05:01:22.087Z,20.60
2022-09-14T05:03:49.931Z,20.60
2022-09-14T05:06:20.059Z,20.60
2022-09-14T05:08:47.603Z,20.60
2022-09-14T05:11:17.864Z,20.60
2022-09-14T05:13:49.501Z,20.70
2022-09-14T05:16:23.073Z,20.70
2022-09-14T05:18:51.107Z,20.80
2022-09-14T05:21:19.740Z,20.80
2022-09-14T05:23:46.987Z,20.80
2022-09-14T05:26:14.718Z,20.80
2022-09-14T05:28:42.026Z,20.80
2022-09-14T05:31:11.131Z,20.90
2022-09-14T05:33:38.116Z,20.90
2022-09-14T05:36:07.268Z,20.90
2022-09-14T05:38:36.144Z,21.00
2022-09-14T05:41:04.355Z,21.00
2022-09-14T05:43:31.582Z,21.10
2022-09-14T05:46:03.048Z,21.10
2022-09-14T05:48:34.321Z,21.20
2022-09-14T05:51:04.460Z,21.20
2022-09-14T05:53:31.780Z,21.40
2022-09-14T05:56:06.326Z,21.50
2022-09-14T05:58:34.221Z,21.70
2022-09-14T06:01:15.603Z,21.80
2022-09-14T06:03:43.705Z,22.00
2022-09-14T06:06:12.800Z,22.10
2022-09-14T06:08:40.079Z,22.30
2022-09-14T06:11:10.347Z,22.50
2022-09-14T06:13:37.988Z,22.80
2022-09-14T06:16:10.529Z,23.00
2022-09-14T06:18:38.972Z,23.10
2022-09-14T06:21:06.647Z,23.30
2022-09-14T06:23:34.274Z,23.30
2022-09-14T06:26:03.182Z,23.40
2022-09-14T06:28:30.848Z,23.60
2022-09-14T06:30:58.236Z,24.00
2022-09-14T06:33:25.319Z,24.60
2022-09-14T06:35:57.157Z,25.00
2022-09-14T06:38:25.015Z,25.30
2022-09-14T06:40:56.991Z,25.80
2022-09-14T06:43:29.327Z,26.10
2022-09-14T06:46:01.841Z,26.50
2022-09-14T06:48:38.027Z,27.40
2022-09-14T06:51:13.283Z,28.30
2022-09-14T06:53:40.654Z,29.20
2022-09-14T06:56:07.592Z,29.70
2022-09-14T06:58:35.415Z,29.90
2022-09-14T07:01:04.374Z,30.20
2022-09-14T07:03:32.927Z,30.70
2022-09-14T07:06:09.017Z,31.20
2022-09-14T07:08:37.240Z,31.60
2022-09-14T07:11:05.803Z,32.00
2022-09-14T07:13:33.491Z,32.50
2022-09-14T07:16:00.447Z,32.70
2022-09-14T07:18:28.435Z,33.10
2022-09-14T07:20:55.762Z,33.70
2022-09-14T07:23:22.754Z,34.20
2022-09-14T07:26:00.203Z,34.90
2022-09-14T07:28:27.639Z,35.70
2022-09-14T07:30:58.939Z,35.70
2022-09-14T07:33:26.388Z,35.00
2022-09-14T07:35:53.659Z,34.40
2022-09-14T07:38:41.535Z,33.50
2022-09-14T07:41:08.770Z,32.30
2022-09-14T07:43:36.205Z,31.50
2022-09-14T07:46:04.790Z,30.70
2022-09-14T07:48:33.331Z,30.00
2022-09-14T07:51:11.095Z,29.40
2022-09-14T07:53:40.633Z,29.30
2022-09-14T07:56:07.936Z,29.20
2022-09-14T07:58:35.601Z,29.20
2022-09-14T08:01:08.832Z,29.60
2022-09-14T08:03:40.229Z,29.70
2022-09-14T08:06:13.455Z,29.50
2022-09-14T08:08:42.835Z,29.50
2022-09-14T08:11:15.260Z,29.70
2022-09-14T08:13:46.053Z,30.00
2022-09-14T08:16:13.618Z,30.40
2022-09-14T08:18:40.803Z,30.60
2022-09-14T08:21:13.861Z,31.20
2022-09-14T08:23:41.716Z,31.70
2022-09-14T08:26:14.575Z,31.70
2022-09-14T08:28:42.402Z,31.50
2022-09-14T08:31:18.771Z,31.30
2022-09-14T08:33:48.440Z,31.40
2022-09-14T08:36:17.733Z,31.40
2022-09-14T08:38:45.343Z,31.30
2022-09-14T08:41:18.136Z,30.70
2022-09-14T08:43:45.826Z,30.10
2022-09-14T08:46:27.250Z,30.00
2022-09-14T08:48:54.558Z,30.20
2022-09-14T08:51:21.987Z,30.70
2022-09-14T08:53:52.471Z,31.10
2022-09-14T08:56:24.980Z,31.40
2022-09-14T08:59:00.801Z,31.50
2022-09-14T09:01:55.634Z,31.40
2022-09-14T09:04:33.779Z,31.10
2022-09-14T09:07:17.804Z,30.80
2022-09-14T09:09:51.012Z,30.70
2022-09-14T09:12:22.154Z,30.60
2022-09-14T09:14:55.704Z,30.80
2022-09-14T09:17:29.937Z,31.00
2022-09-14T09:20:05.731Z,31.20
2022-09-14T09:22:55.012Z,31.20
2022-09-14T09:25:27.226Z,30.90
2022-09-14T09:28:03.124Z,30.70
2022-09-14T09:30:30.403Z,30.80
2022-09-14T09:32:57.770Z,30.80
2022-09-14T09:35:43.821Z,31.10
2022-09-14T09:38:20.086Z,31.50
2022-09-14T09:41:00.490Z,31.50
2022-09-14T09:43:45.685Z,31.70
2022-09-14T09:46:14.923Z,31.60
2022-09-14T09:48:44.851Z,31.20
2022-09-14T09:51:14.828Z,31.10
2022-09-14T09:53:54.536Z,30.90
2022-09-14T09:56:28.107Z,30.80
2022-09-14T09:58:55.315Z,31.10
2022-09-14T10:01:23.217Z,31.70
2022-09-14T10:04:08.860Z,32.20
2022-09-14T10:06:44.242Z,32.70
2022-09-14T10:09:20.395Z,33.60
2022-09-14T10:11:49.316Z,34.40
2022-09-14T10:14:36.740Z,35.30
2022-09-14T10:17:22.648Z,36.20
2022-09-14T10:19:54.912Z,35.60
2022-09-14T10:22:32.060Z,34.60
2022-09-14T10:25:02.162Z,34.90
2022-09-14T10:27:41.917Z,35.90
2022-09-14T10:30:21.191Z,37.20
2022-09-14T10:33:06.359Z,38.20
2022-09-14T10:36:10.463Z,38.70
2022-09-14T10:39:01.254Z,38.90
2022-09-14T10:41:45.619Z,39.10
2022-09-14T10:44:32.130Z,39.70
2022-09-14T10:47:23.073Z,40.10
2022-09-14T10:50:04.973Z,39.70
2022-09-14T10:52:50.542Z,39.00
2022-09-14T10:55:52.820Z,37.80
2022-09-14T10:58:28.631Z,36.40
2022-09-14T11:01:13.323Z,35.40
2022-09-14T11:03:55.694Z,35.20
2022-09-14T11:06:25.420Z,35.70
2022-09-14T11:09:06.658Z,36.70
2022-09-14T11:11:45.981Z,37.50
2022-09-14T11:14:22.081Z,37.60
2022-09-14T11:17:16.423Z,37.20
2022-09-14T11:20:04.411Z,37.10
2022-09-14T11:22:39.276Z,37.50
2022-09-14T11:25:12.457Z,37.50
2022-09-14T11:27:57.584Z,37.20
2022-09-14T11:30:39.457Z,37.20
2022-09-14T11:33:19.248Z,37.40
2022-09-14T11:36:10.925Z,37.40
2022-09-14T11:38:46.527Z,36.60
2022-09-14T11:41:32.407Z,36.10
2022-09-14T11:44:16.516Z,35.70
2022-09-14T11:47:00.479Z,36.40
2022-09-14T11:49:34.443Z,37.00
2022-09-14T11:52:07.652Z,37.30
2022-09-14T11:54:41.531Z,37.60
2022-09-14T11:57:30.481Z,38.40
2022-09-14T12:00:06.824Z,39.20
2022-09-14T12:02:38.057Z,38.80
2022-09-14T12:05:05.184Z,37.50
2022-09-14T12:07:45.457Z,36.60
2022-09-14T12:10:22.038Z,35.80
2022-09-14T12:12:55.672Z,34.60
2022-09-14T12:15:26.101Z,33.60
2022-09-14T12:18:08.155Z,32.90
2022-09-14T12:20:40.987Z,32.20
2022-09-14T12:23:22.979Z,32.00
2022-09-14T12:25:58.303Z,31.60
2022-09-14T12:28:40.472Z,31.20
2022-09-14T12:31:28.598Z,31.20
2022-09-14T12:34:06.123Z,31.30
2022-09-14T12:36:33.266Z,31.60
2022-09-14T12:39:00.468Z,31.60
2022-09-14T12:41:28.067Z,31.40
2022-09-14T12:43:56.006Z,31.20
2022-09-14T12:46:23.016Z,31.10
2022-09-14T12:49:00.195Z,31.10
2022-09-14T12:51:32.688Z,31.30
2022-09-14T12:54:24.793Z,31.40
2022-09-14T12:57:19.946Z,31.50
2022-09-14T12:59:56.037Z,31.50
2022-09-14T13:02:52.092Z,31.90
2022-09-14T13:05:26.929Z,33.00
2022-09-14T13:07:55.220Z,34.00
2022-09-14T13:10:33.012Z,34.90
2022-09-14T13:13:02.833Z,35.80
2022-09-14T13:15:36.904Z,36.50
2022-09-14T13:18:24.829Z,36.90
2022-09-14T13:20:53.955Z,36.60
2022-09-14T13:23:33.638Z,35.40
2022-09-14T13:26:08.233Z,34.40
2022-09-14T13:28:35.472Z,33.60
2022-09-14T13:31:02.919Z,33.20
2022-09-14T13:33:30.481Z,32.80
2022-09-14T13:36:31.019Z,32.60
2022-09-14T13:39:33.294Z,32.40
2022-09-14T13:42:09.939Z,32.40
2022-09-14T13:44:55.827Z,32.40
2022-09-14T13:47:46.438Z,32.20
2022-09-14T13:50:16.717Z,31.90
2022-09-14T13:53:01.087Z,31.60
2022-09-14T13:55:43.534Z,31.20
2022-09-14T13:58:14.945Z,31.00
2022-09-14T14:01:00.710Z,31.00
2022-09-14T14:03:29.550Z,30.90
2022-09-14T14:05:57.192Z,30.50
2022-09-14T14:08:38.441Z,30.20
2022-09-14T14:11:07.617Z,30.00
2022-09-14T14:13:37.372Z,29.90
2022-09-14T14:16:24.957Z,30.00
2022-09-14T14:18:55.983Z,30.00
2022-09-14T14:21:23.038Z,30.10
2022-09-14T14:24:12.610Z,30.10
2022-09-14T14:26:47.220Z,30.10
2022-09-14T14:29:16.244Z,30.10
2022-09-14T14:31:43.855Z,30.10
2022-09-14T14:34:19.062Z,30.00
2022-09-14T14:36:48.061Z,29.90
2022-09-14T14:39:15.072Z,29.80
2022-09-14T14:41:42.483Z,29.70
2022-09-14T14:44:19.416Z,29.70
2022-09-14T14:46:47.339Z,29.60
2022-09-14T14:49:15.871Z,29.50
2022-09-14T14:51:43.228Z,29.40
2022-09-14T14:54:11.165Z,29.30
2022-09-14T14:56:39.059Z,29.20
2022-09-14T14:59:21.184Z,29.10
2022-09-14T15:01:50.104Z,29.10
2022-09-14T15:04:17.316Z,29.10
2022-09-14T15:06:46.255Z,29.10
2022-09-14T15:09:19.384Z,29.10
2022-09-14T15:11:47.434Z,29.00
2022-09-14T15:14:17.539Z,28.90
2022-09-14T15:16:45.558Z,28.80
2022-09-14T15:19:12.979Z,28.70
2022-09-14T15:21:41.432Z,28.70
2022-09-14T15:24:09.912Z,28.50
2022-09-14T15:26:38.141Z,28.50
2022-09-14T15:29:05.658Z,28.40
2022-09-14T15:31:33.181Z,28.40
2022-09-14T15:34:00.378Z,28.50
2022-09-14T15:36:51.095Z,28.50
2022-09-14T15:39:21.898Z,28.50
2022-09-14T15:41:49.680Z,28.40
2022-09-14T15:44:16.941Z,28.30
2022-09-14T15:46:47.799Z,28.20
2022-09-14T15:49:20.564Z,28.00
2022-09-14T15:51:50.506Z,27.90
2022-09-14T15:54:19.775Z,27.70
2022-09-14T15:56:55.845Z,27.50
2022-09-14T15:59:23.345Z,27.40
2022-09-14T16:01:50.729Z,27.30
2022-09-14T16:04:18.822Z,27.20
2022-09-14T16:06:46.432Z,27.00
2022-09-14T16:09:15.069Z,26.90
2022-09-14T16:11:42.710Z,26.80
2022-09-14T16:14:10.860Z,26.80
2022-09-14T16:16:39.247Z,26.70
2022-09-14T16:19:08.682Z,26.80
2022-09-14T16:21:36.105Z,26.80
2022-09-14T16:24:05.363Z,26.90
2022-09-14T16:26:34.615Z,26.90
2022-09-14T16:29:02.327Z,26.80
2022-09-14T16:31:50.733Z,26.70
2022-09-14T16:34:23.914Z,26.50
2022-09-14T16:36:51.403Z,26.20
2022-09-14T16:39:25.340Z,26.10
2022-09-14T16:41:56.195Z,26.10
2022-09-14T16:44:25.609Z,26.00
2022-09-14T16:46:55.097Z,25.90
2022-09-14T16:49:26.568Z,25.80
2022-09-14T16:51:55.636Z,25.70
2022-09-14T16:54:24.147Z,25.70
2022-09-14T16:56:51.464Z,25.60
2022-09-14T16:59:20.557Z,25.60
2022-09-14T17:01:54.022Z,25.60
2022-09-14T17:04:22.791Z,25.50
2022-09-14T17:06:51.641Z,25.50
2022-09-14T17:09:25.519Z,25.50
2022-09-14T17:11:54.281Z,25.40
2022-09-14T17:14:25.623Z,25.30
2022-09-14T17:16:53.110Z,25.30
2022-09-14T17:19:21.097Z,25.20
2022-09-14T17:21:48.670Z,25.10
2022-09-14T17:24:17.364Z,25.00
2022-09-14T17:26:45.325Z,25.00
2022-09-14T17:29:13.076Z,25.00
2022-09-14T17:31:41.993Z,24.90
2022-09-14T17:34:11.448Z,24.80
2022-09-14T17:36:38.888Z,24.70
2022-09-14T17:39:11.679Z,24.60
2022-09-14T17:41:39.971Z,24.50
2022-09-14T17:44:07.958Z,24.40
2022-09-14T17:46:38.475Z,24.30
2022-09-14T17:49:12.685Z,24.30
2022-09-14T17:51:40.184Z,24.30
2022-09-14T17:54:07.316Z,24.20
2022-09-14T17:56:34.216Z,24.20
2022-09-14T17:59:11.612Z,24.20
2022-09-14T18:01:38.636Z,24.10
2022-09-14T18:04:10.000Z,24.10
2022-09-14T18:06:40.241Z,24.10
2022-09-14T18:09:11.536Z,24.10
2022-09-14T18:11:38.554Z,24.10
2022-09-14T18:14:06.102Z,24.00
2022-09-14T18:16:33.626Z,24.00
2022-09-14T18:19:00.630Z,24.00
2022-09-14T18:21:27.988Z,24.00
2022-09-14T18:23:56.063Z,24.00
2022-09-14T18:26:24.729Z,24.00
2022-09-14T18:28:55.944Z,24.00
2022-09-14T18:31:23.155Z,24.10
2022-09-14T18:33:52.310Z,24.00
2022-09-14T18:36:20.500Z,24.00
2022-09-14T18:38:48.733Z,24.00
2022-09-14T18:41:17.097Z,23.90
2022-09-14T18:43:49.689Z,23.90
2022-09-14T18:46:18.100Z,23.90
2022-09-14T18:48:45.148Z,23.90
2022-09-14T18:51:14.468Z,23.90
2022-09-14T18:53:41.682Z,23.90
2022-09-14T18:56:13.505Z,23.90
2022-09-14T18:58:43.675Z,23.90
2022-09-14T19:01:11.666Z,23.90
2022-09-14T19:03:40.799Z,23.80
2022-09-14T19:06:10.455Z,23.70
2022-09-14T19:08:37.736Z,23.70
2022-09-14T19:11:16.808Z,23.70
2022-09-14T19:13:45.103Z,23.70
2022-09-14T19:16:17.791Z,23.60
2022-09-14T19:18:46.405Z,23.60
2022-09-14T19:21:16.474Z,23.60
2022-09-14T19:23:43.791Z,23.60
2022-09-14T19:26:16.848Z,23.60
2022-09-14T19:28:44.572Z,23.50
2022-09-14T19:31:17.416Z,23.50
2022-09-14T19:33:45.837Z,23.50
2022-09-14T19:36:16.252Z,23.50
2022-09-14T19:38:43.576Z,23.40
2022-09-14T19:41:10.755Z,23.40
2022-09-14T19:43:37.870Z,23.40
2022-09-14T19:46:13.462Z,23.40
2022-09-14T19:48:41.414Z,23.30
2022-09-14T19:51:12.779Z,23.30
2022-09-14T19:53:39.874Z,23.30
2022-09-14T19:56:09.231Z,23.30
2022-09-14T19:58:37.978Z,23.30
2022-09-14T20:01:06.034Z,23.30
2022-09-14T20:03:33.503Z,23.20
2022-09-14T20:06:01.405Z,23.20
2022-09-14T20:08:29.180Z,23.20
2022-09-14T20:10:56.116Z,23.20
2022-09-14T20:13:23.110Z,23.10
2022-09-14T20:15:50.049Z,23.00
2022-09-14T20:18:17.038Z,23.00
2022-09-14T20:20:43.998Z,23.00
2022-09-14T20:23:10.931Z,23.00
2022-09-14T20:25:37.894Z,23.00
2022-09-14T20:28:04.856Z,23.00
2022-09-14T20:30:31.831Z,23.00
2022-09-14T20:32:58.812Z,22.90
2022-09-14T20:35:25.692Z,22.90
2022-09-14T20:37:52.631Z,22.90
2022-09-14T20:40:19.678Z,22.80
2022-09-14T20:42:46.663Z,22.80
2022-09-14T20:45:15.290Z,22.80
2022-09-14T20:47:44.183Z,22.80
2022-09-14T20:50:11.092Z,22.70
2022-09-14T20:52:38.084Z,22.70
2022-09-14T20:55:06.227Z,22.70
2022-09-14T20:57:33.193Z,22.70
2022-09-14T21:00:00.140Z,22.60
2022-09-14T21:02:27.134Z,22.60
2022-09-14T21:04:54.092Z,22.60
2022-09-14T21:07:22.266Z,22.60
2022-09-14T21:09:49.417Z,22.60
2022-09-14T21:12:16.666Z,22.60
2022-09-14T21:14:45.272Z,22.60
2022-09-14T21:17:12.199Z,22.50
2022-09-14T21:19:39.189Z,22.50
2022-09-14T21:22:06.421Z,22.50
2022-09-14T21:24:35.085Z,22.40
2022-09-14T21:27:02.247Z,22.40
2022-09-14T21:29:29.298Z,22.40
2022-09-14T21:31:56.191Z,22.30
2022-09-14T21:34:23.177Z,22.30
2022-09-14T21:36:51.720Z,22.30
2022-09-14T21:39:23.147Z,22.30
2022-09-14T21:41:57.290Z,22.30
2022-09-14T21:44:33.992Z,22.30
2022-09-14T21:47:02.304Z,22.30
2022-09-14T21:49:29.334Z,22.30
2022-09-14T21:51:56.284Z,22.20
2022-09-14T21:54:23.371Z,22.20
2022-09-14T21:56:50.261Z,22.20
2022-09-14T21:59:19.463Z,22.20
2022-09-14T22:01:47.711Z,22.20
2022-09-14T22:04:18.778Z,22.10
2022-09-14T22:06:46.729Z,22.10
2022-09-14T22:09:15.827Z,22.10
2022-09-14T22:11:42.952Z,22.10
2022-09-14T22:14:18.407Z,22.10
2022-09-14T22:16:45.976Z,22.10
2022-09-14T22:19:17.662Z,22.10
2022-09-14T22:21:44.835Z,22.10
2022-09-14T22:24:15.464Z,22.10
2022-09-14T22:26:43.722Z,22.00
2022-09-14T22:29:11.269Z,22.10
2022-09-14T22:31:40.215Z,22.00
2022-09-14T22:34:08.335Z,22.10
2022-09-14T22:36:35.732Z,22.00
2022-09-14T22:39:04.175Z,22.00
2022-09-14T22:41:31.359Z,22.00
2022-09-14T22:43:58.365Z,21.90
2022-09-14T22:46:25.598Z,21.90
2022-09-14T22:48:54.620Z,21.90
2022-09-14T22:51:24.555Z,21.90
2022-09-14T22:53:52.721Z,21.90
2022-09-14T22:56:25.511Z,21.90
2022-09-14T22:58:53.370Z,21.90
2022-09-14T23:01:26.438Z,21.90
2022-09-14T23:04:03.651Z,21.90
2022-09-14T23:06:33.856Z,21.90
2022-09-14T23:09:01.311Z,21.80
2022-09-14T23:11:29.288Z,21.80
2022-09-14T23:13:57.553Z,21.80
2022-09-14T23:16:26.422Z,21.80
2022-09-14T23:18:57.889Z,21.80
2022-09-14T23:21:25.723Z,21.80
2022-09-14T23:23:54.207Z,21.80
2022-09-14T23:26:22.953Z,21.80
2022-09-14T23:29:02.438Z,21.70
2022-09-14T23:31:30.831Z,21.80
2022-09-14T23:34:00.812Z,21.70
2022-09-14T23:36:28.111Z,21.70
2022-09-14T23:38:55.061Z,21.70
2022-09-14T23:41:24.109Z,21.70
2022-09-14T23:43:51.922Z,21.70
2022-09-14T23:46:19.607Z,21.70
2022-09-14T23:48:47.126Z,21.60
2022-09-14T23:51:14.342Z,21.60
2022-09-14T23:53:41.972Z,21.60
2022-09-14T23:56:09.298Z,21.60
2022-09-14T23:58:36.714Z,21.60
